createdAt,value
2017-09-15T00:02:15.750Z,12.80
2017-09-15T00:04:42.089Z,13.20
2017-09-15T00:07:11.723Z,12.80
2017-09-15T00:09:38.755Z,12.90
2017-09-15T00:12:05.106Z,12.90
2017-09-15T00:14:32.201Z,12.90
2017-09-15T00:16:58.573Z,13.00
2017-09-15T00:19:24.937Z,12.80
2017-09-15T00:21:51.284Z,12.90
2017-09-15T00:24:17.749Z,12.80
2017-09-15T00:26:44.129Z,12.70
2017-09-15T00:29:12.278Z,12.80
2017-09-15T00:31:38.739Z,12.70
2017-09-15T00:34:05.073Z,12.60
2017-09-15T00:36:38.732Z,12.70
2017-09-15T00:39:05.275Z,12.70
2017-09-15T00:41:32.369Z,12.60
2017-09-15T00:43:58.726Z,12.90
2017-09-15T00:46:25.085Z,12.60
2017-09-15T00:48:52.147Z,12.70
2017-09-15T00:51:18.702Z,12.70
2017-09-15T00:53:45.082Z,12.40
2017-09-15T00:56:12.181Z,12.90
2017-09-15T00:58:39.270Z,12.80
2017-09-15T01:01:05.614Z,13.10
2017-09-15T01:03:31.970Z,12.70
2017-09-15T01:05:58.330Z,12.70
2017-09-15T01:08:24.777Z,12.70
2017-09-15T01:10:51.865Z,12.60
2017-09-15T01:13:18.234Z,12.50
2017-09-15T01:15:48.410Z,12.60
2017-09-15T01:18:14.750Z,12.60
2017-09-15T01:20:41.847Z,12.50
2017-09-15T01:23:08.215Z,12.50
2017-09-15T01:25:34.573Z,12.50
2017-09-15T01:28:00.926Z,12.90
2017-09-15T01:30:27.275Z,12.60
2017-09-15T01:32:54.825Z,12.60
2017-09-15T01:35:21.934Z,12.60
2017-09-15T01:37:48.318Z,12.60
2017-09-15T01:40:14.678Z,12.70
2017-09-15T01:42:41.047Z,12.60
2017-09-15T01:45:07.984Z,12.70
2017-09-15T01:47:34.506Z,12.50
2017-09-15T01:50:00.863Z,12.50
2017-09-15T01:52:27.205Z,12.50
2017-09-15T01:54:54.302Z,12.50
2017-09-15T01:57:20.661Z,12.50
2017-09-15T01:59:47.894Z,12.50
2017-09-15T02:02:14.498Z,12.20
2017-09-15T02:04:40.817Z,12.50
2017-09-15T02:07:07.150Z,12.50
2017-09-15T02:09:33.498Z,12.60
2017-09-15T02:11:59.824Z,12.30
2017-09-15T02:14:26.781Z,12.70
2017-09-15T02:16:53.131Z,12.40
2017-09-15T02:19:19.457Z,12.50
2017-09-15T02:21:45.789Z,12.50
2017-09-15T02:24:12.127Z,12.50
2017-09-15T02:26:39.221Z,12.40
2017-09-15T02:29:05.539Z,12.40
2017-09-15T02:31:31.889Z,12.40
2017-09-15T02:33:58.234Z,12.40
2017-09-15T02:36:24.574Z,12.30
2017-09-15T02:38:50.886Z,12.80
2017-09-15T02:41:17.222Z,12.30
2017-09-15T02:43:43.565Z,12.10
2017-09-15T02:46:09.886Z,12.00
2017-09-15T02:48:36.351Z,12.10
2017-09-15T02:51:02.730Z,12.00
2017-09-15T02:53:29.089Z,12.00
2017-09-15T02:55:55.385Z,12.10
2017-09-15T02:58:21.790Z,12.00
2017-09-15T03:00:48.147Z,11.80
2017-09-15T03:03:14.493Z,12.00
2017-09-15T03:05:40.837Z,12.10
2017-09-15T03:08:07.189Z,11.90
2017-09-15T03:10:34.301Z,11.90
2017-09-15T03:13:00.665Z,11.90
2017-09-15T03:15:27.001Z,12.00
2017-09-15T03:17:54.069Z,11.90
2017-09-15T03:20:21.165Z,11.90
2017-09-15T03:22:47.529Z,11.90
2017-09-15T03:25:14.649Z,11.90
2017-09-15T03:27:40.986Z,11.90
2017-09-15T03:30:07.330Z,11.80
2017-09-15T03:32:34.438Z,11.80
2017-09-15T03:35:00.777Z,11.80
2017-09-15T03:37:27.120Z,11.70
2017-09-15T03:39:53.465Z,11.60
2017-09-15T03:42:19.806Z,11.60
2017-09-15T03:44:46.141Z,11.60
2017-09-15T03:47:13.233Z,11.60
2017-09-15T03:49:39.592Z,11.60
2017-09-15T03:52:06.699Z,11.60
2017-09-15T03:54:33.037Z,11.60
2017-09-15T03:56:59.382Z,11.40
2017-09-15T03:59:25.695Z,11.50
2017-09-15T04:01:52.031Z,11.60
2017-09-15T04:04:18.378Z,11.60
2017-09-15T04:06:44.710Z,11.60
2017-09-15T04:09:11.061Z,11.50
2017-09-15T04:11:37.377Z,11.50
2017-09-15T04:14:03.717Z,11.60
2017-09-15T04:16:30.024Z,11.50
2017-09-15T04:18:56.368Z,11.50
2017-09-15T04:21:22.712Z,11.40
2017-09-15T04:23:49.059Z,11.40
2017-09-15T04:26:15.380Z,11.40
2017-09-15T04:28:42.479Z,11.40
2017-09-15T04:31:08.842Z,11.40
2017-09-15T04:33:35.202Z,11.30
2017-09-15T04:36:02.248Z,11.30
2017-09-15T04:38:29.378Z,11.30
2017-09-15T04:40:56.435Z,11.20
2017-09-15T04:43:23.510Z,11.20
2017-09-15T04:45:49.869Z,11.20
2017-09-15T04:48:16.166Z,11.20
2017-09-15T04:50:42.503Z,11.20
2017-09-15T04:53:08.894Z,11.30
2017-09-15T04:55:35.237Z,11.60
2017-09-15T04:58:01.570Z,11.40
2017-09-15T05:00:28.014Z,11.40
2017-09-15T05:02:54.378Z,11.60
2017-09-15T05:05:20.705Z,11.40
2017-09-15T05:07:47.421Z,11.50
2017-09-15T05:10:13.942Z,11.50
2017-09-15T05:12:40.382Z,11.50
2017-09-15T05:15:06.837Z,11.50
2017-09-15T05:17:33.194Z,11.60
2017-09-15T05:19:59.585Z,11.70
2017-09-15T05:22:25.938Z,11.70
2017-09-15T05:24:52.361Z,11.70
2017-09-15T05:27:18.732Z,11.60
2017-09-15T05:29:45.038Z,11.70
2017-09-15T05:32:11.343Z,11.70
2017-09-15T05:34:37.741Z,11.80
2017-09-15T05:37:05.814Z,11.50
2017-09-15T05:39:32.143Z,11.80
2017-09-15T05:41:58.501Z,12.20
2017-09-15T05:44:24.832Z,11.90
2017-09-15T05:46:51.181Z,11.90
2017-09-15T05:49:17.692Z,12.00
2017-09-15T05:51:44.017Z,12.00
2017-09-15T05:54:10.539Z,12.00
2017-09-15T05:56:36.883Z,12.00
2017-09-15T05:59:03.303Z,12.00
2017-09-15T06:01:29.716Z,11.70
2017-09-15T06:03:56.098Z,12.00
2017-09-15T06:06:22.486Z,12.10
2017-09-15T06:08:48.836Z,11.90
2017-09-15T06:11:15.181Z,12.20
2017-09-15T06:13:41.525Z,12.30
2017-09-15T06:16:07.896Z,12.40
2017-09-15T06:18:34.257Z,12.40
2017-09-15T06:21:01.418Z,12.40
2017-09-15T06:23:32.850Z,12.40
2017-09-15T06:25:59.200Z,12.80
2017-09-15T06:28:26.277Z,12.50
2017-09-15T06:30:52.625Z,12.50
2017-09-15T06:33:18.985Z,12.50
2017-09-15T06:35:45.345Z,12.50
2017-09-15T06:38:11.700Z,12.50
2017-09-15T06:40:38.779Z,12.70
2017-09-15T06:43:05.141Z,12.70
2017-09-15T06:45:31.470Z,12.80
2017-09-15T06:47:58.602Z,12.70
2017-09-15T06:50:24.951Z,12.70
2017-09-15T06:52:51.310Z,12.80
2017-09-15T06:55:18.421Z,12.80
2017-09-15T06:57:47.604Z,12.80
2017-09-15T07:00:13.919Z,12.80
2017-09-15T07:02:40.258Z,12.90
2017-09-15T07:05:06.576Z,13.00
2017-09-15T07:07:32.936Z,12.60
2017-09-15T07:09:59.310Z,12.90
2017-09-15T07:12:25.633Z,13.20
2017-09-15T07:14:51.954Z,13.00
2017-09-15T07:17:19.043Z,12.80
2017-09-15T07:19:45.812Z,12.80
2017-09-15T07:22:11.997Z,13.00
2017-09-15T07:24:38.883Z,12.90
2017-09-15T07:27:05.034Z,12.90
2017-09-15T07:29:31.928Z,12.90
2017-09-15T07:31:58.211Z,12.90
2017-09-15T07:34:24.339Z,12.90
2017-09-15T07:36:52.935Z,13.00
2017-09-15T07:39:19.493Z,12.80
2017-09-15T07:41:46.352Z,12.80
2017-09-15T07:44:12.530Z,12.80
2017-09-15T07:46:39.423Z,13.00
2017-09-15T07:49:05.589Z,13.00
2017-09-15T07:51:31.747Z,13.10
2017-09-15T07:54:01.218Z,13.10
2017-09-15T07:56:27.442Z,13.20
2017-09-15T07:58:53.623Z,13.20
2017-09-15T08:01:19.796Z,13.40
2017-09-15T08:03:46.705Z,13.60
2017-09-15T08:06:12.852Z,13.60
2017-09-15T08:08:39.748Z,13.50
2017-09-15T08:11:05.918Z,13.50
2017-09-15T08:13:35.714Z,13.60
2017-09-15T08:16:01.889Z,13.50
2017-09-15T08:18:28.831Z,13.40
2017-09-15T08:20:55.725Z,13.50
2017-09-15T08:23:21.874Z,13.50
2017-09-15T08:25:48.037Z,13.50
2017-09-15T08:28:14.204Z,13.30
2017-09-15T08:30:40.362Z,13.10
2017-09-15T08:33:08.081Z,13.60
2017-09-15T08:35:34.230Z,13.10
2017-09-15T08:38:01.139Z,13.10
2017-09-15T08:40:27.305Z,13.10
2017-09-15T08:42:54.201Z,13.40
2017-09-15T08:45:20.356Z,13.70
2017-09-15T08:47:47.282Z,13.30
2017-09-15T08:50:16.592Z,13.40
2017-09-15T08:52:42.777Z,13.10
2017-09-15T08:55:08.950Z,13.00
2017-09-15T08:57:35.097Z,13.30
2017-09-15T09:00:01.279Z,13.10
2017-09-15T09:02:27.478Z,12.90
2017-09-15T09:04:53.652Z,13.00
2017-09-15T09:07:22.914Z,13.00
2017-09-15T09:09:50.019Z,12.80
2017-09-15T09:12:16.183Z,12.90
2017-09-15T09:14:42.348Z,12.90
2017-09-15T09:17:09.271Z,13.00
2017-09-15T09:19:35.432Z,13.10
2017-09-15T09:22:01.626Z,13.00
2017-09-15T09:24:27.805Z,13.30
2017-09-15T09:26:53.964Z,13.50
2017-09-15T09:29:22.088Z,13.70
2017-09-15T09:31:48.279Z,13.90
2017-09-15T09:34:15.174Z,14.20
2017-09-15T09:36:41.323Z,14.40
2017-09-15T09:39:07.488Z,14.10
2017-09-15T09:41:33.630Z,14.50
2017-09-15T09:43:59.763Z,14.20
2017-09-15T09:46:27.845Z,14.30
2017-09-15T09:48:53.988Z,14.20
2017-09-15T09:51:20.141Z,14.20
2017-09-15T09:53:47.046Z,13.80
2017-09-15T09:56:13.205Z,14.00
2017-09-15T09:58:39.411Z,13.90
2017-09-15T10:01:05.554Z,14.30
2017-09-15T10:03:38.100Z,14.30
2017-09-15T10:06:05.015Z,14.50
2017-09-15T10:08:31.177Z,14.50
2017-09-15T10:10:57.398Z,14.20
2017-09-15T10:13:23.546Z,14.50
2017-09-15T10:15:50.435Z,14.60
2017-09-15T10:18:16.589Z,14.60
2017-09-15T10:20:42.750Z,14.40
2017-09-15T10:23:11.780Z,14.30
2017-09-15T10:25:37.930Z,14.30
2017-09-15T10:28:04.070Z,14.50
2017-09-15T10:30:30.251Z,14.50
2017-09-15T10:32:56.451Z,14.50
2017-09-15T10:35:22.585Z,14.40
2017-09-15T10:37:48.753Z,14.40
2017-09-15T10:40:14.903Z,14.30
2017-09-15T10:42:43.162Z,14.30
2017-09-15T10:45:09.327Z,14.20
2017-09-15T10:47:35.519Z,14.20
2017-09-15T10:50:02.535Z,14.30
2017-09-15T10:52:28.701Z,14.20
2017-09-15T10:54:55.594Z,14.70
2017-09-15T10:57:22.602Z,14.70
2017-09-15T10:59:54.925Z,14.70
2017-09-15T11:02:21.061Z,14.70
2017-09-15T11:04:47.221Z,14.60
2017-09-15T11:07:14.149Z,14.60
2017-09-15T11:09:40.375Z,14.60
2017-09-15T11:12:06.506Z,14.70
2017-09-15T11:14:32.823Z,14.90
2017-09-15T11:16:59.040Z,14.90
2017-09-15T11:19:25.189Z,15.00
2017-09-15T11:21:51.332Z,15.00
2017-09-15T11:24:17.489Z,15.00
2017-09-15T11:26:45.924Z,14.90
2017-09-15T11:29:12.125Z,14.90
2017-09-15T11:31:38.297Z,14.80
2017-09-15T11:34:05.199Z,14.50
2017-09-15T11:36:31.387Z,14.50
2017-09-15T11:38:57.735Z,14.70
2017-09-15T11:41:23.903Z,14.90
2017-09-15T11:43:50.109Z,14.90
2017-09-15T11:46:16.260Z,14.90
2017-09-15T11:48:42.423Z,15.00
2017-09-15T11:51:08.647Z,15.10
2017-09-15T11:53:34.868Z,15.10
2017-09-15T11:56:01.034Z,14.90
2017-09-15T11:58:27.180Z,14.80
2017-09-15T12:00:53.326Z,14.80
2017-09-15T12:03:19.578Z,14.70
2017-09-15T12:05:45.833Z,14.70
2017-09-15T12:08:12.105Z,14.80
2017-09-15T12:10:51.139Z,14.50
2017-09-15T12:13:18.026Z,14.60
2017-09-15T12:15:44.188Z,14.80
2017-09-15T12:18:10.339Z,14.70
2017-09-15T12:20:36.504Z,15.10
2017-09-15T12:23:04.349Z,15.10
2017-09-15T12:25:30.586Z,15.10
2017-09-15T12:27:59.901Z,15.30
2017-09-15T12:30:26.266Z,15.30
2017-09-15T12:32:52.415Z,15.30
2017-09-15T12:35:18.711Z,15.60
2017-09-15T12:37:46.645Z,15.60
2017-09-15T12:40:18.107Z,15.50
2017-09-15T12:42:45.110Z,15.50
2017-09-15T12:45:11.302Z,15.50
2017-09-15T12:47:38.737Z,15.50
2017-09-15T12:50:05.012Z,15.60
2017-09-15T12:52:31.204Z,16.10
2017-09-15T12:54:57.896Z,15.30
2017-09-15T12:57:25.870Z,15.70
2017-09-15T12:59:52.044Z,15.60
2017-09-15T13:02:19.020Z,15.60
2017-09-15T13:04:45.171Z,15.70
2017-09-15T13:07:11.444Z,15.80
2017-09-15T13:09:37.615Z,16.00
2017-09-15T13:12:03.767Z,15.40
2017-09-15T13:14:30.646Z,15.50
2017-09-15T13:16:56.854Z,15.50
2017-09-15T13:19:24.409Z,15.70
2017-09-15T13:21:51.946Z,15.60
2017-09-15T13:24:24.923Z,15.50
2017-09-15T13:26:51.118Z,15.50
2017-09-15T13:29:17.302Z,15.40
2017-09-15T13:31:43.464Z,15.40
2017-09-15T13:34:10.419Z,15.50
2017-09-15T13:36:36.567Z,15.50
2017-09-15T13:39:02.755Z,15.80
2017-09-15T13:41:28.885Z,15.70
2017-09-15T13:43:55.026Z,15.80
2017-09-15T13:46:21.968Z,15.90
2017-09-15T13:48:49.088Z,15.90
2017-09-15T13:51:15.253Z,15.90
2017-09-15T13:53:41.487Z,15.70
2017-09-15T13:56:07.627Z,15.90
2017-09-15T13:58:33.777Z,15.80
2017-09-15T14:01:00.196Z,15.90
2017-09-15T14:03:26.336Z,15.80
2017-09-15T14:05:52.558Z,15.90
2017-09-15T14:08:18.891Z,15.30
2017-09-15T14:10:45.037Z,15.80
2017-09-15T14:13:11.193Z,16.00
2017-09-15T14:15:37.428Z,16.00
2017-09-15T14:18:03.691Z,16.10
2017-09-15T14:20:29.842Z,16.10
2017-09-15T14:22:56.088Z,16.20
2017-09-15T14:25:24.598Z,16.20
2017-09-15T14:27:50.746Z,16.20
2017-09-15T14:30:16.921Z,16.30
2017-09-15T14:32:43.073Z,16.20
2017-09-15T14:35:09.247Z,16.40
2017-09-15T14:37:35.402Z,16.30
2017-09-15T14:42:36.156Z,16.30
2017-09-15T14:45:02.397Z,16.30
2017-09-15T14:47:28.566Z,16.40
2017-09-15T14:49:54.721Z,16.20
2017-09-15T14:52:22.832Z,16.30
2017-09-15T14:54:48.958Z,16.20
2017-09-15T14:57:18.365Z,16.10
2017-09-15T14:59:45.470Z,16.10
2017-09-15T15:02:11.659Z,16.00
2017-09-15T15:04:38.540Z,16.00
2017-09-15T15:07:05.697Z,16.00
2017-09-15T15:09:31.850Z,16.10
2017-09-15T15:11:58.017Z,16.00
2017-09-15T15:14:24.210Z,16.10
2017-09-15T15:16:50.359Z,16.10
2017-09-15T15:19:16.553Z,16.10
2017-09-15T15:21:42.726Z,16.10
2017-09-15T15:24:08.852Z,15.90
2017-09-15T15:26:34.982Z,16.20
2017-09-15T15:29:01.139Z,15.90
2017-09-15T15:31:27.998Z,15.90
2017-09-15T15:33:54.310Z,15.90
2017-09-15T15:36:20.576Z,16.00
2017-09-15T15:38:47.450Z,16.00
2017-09-15T15:41:13.594Z,16.00
2017-09-15T15:43:39.753Z,16.00
2017-09-15T15:46:05.883Z,15.60
2017-09-15T15:48:32.797Z,15.70
2017-09-15T15:50:58.996Z,15.60
2017-09-15T15:53:25.173Z,15.70
2017-09-15T15:55:51.354Z,15.70
2017-09-15T15:58:17.485Z,15.90
2017-09-15T16:00:43.689Z,15.60
2017-09-15T16:03:09.844Z,16.10
2017-09-15T16:05:36.116Z,15.50
2017-09-15T16:08:02.288Z,15.00
2017-09-15T16:10:28.410Z,15.40
2017-09-15T16:12:54.521Z,15.20
2017-09-15T16:15:20.668Z,15.30
2017-09-15T16:17:46.842Z,15.30
2017-09-15T16:20:13.086Z,15.20
2017-09-15T16:22:40.066Z,15.00
2017-09-15T16:25:06.206Z,15.00
2017-09-15T16:27:33.131Z,15.30
2017-09-15T16:29:59.380Z,15.30
2017-09-15T16:32:26.420Z,15.30
2017-09-15T16:34:53.304Z,15.10
2017-09-15T16:37:19.471Z,15.10
2017-09-15T16:39:51.761Z,15.20
2017-09-15T16:42:24.851Z,15.10
2017-09-15T16:44:57.865Z,15.10
2017-09-15T16:47:30.046Z,15.10
2017-09-15T16:49:56.153Z,15.10
2017-09-15T16:52:22.291Z,15.10
2017-09-15T16:54:48.451Z,15.10
2017-09-15T16:57:14.599Z,15.20
2017-09-15T16:59:40.900Z,15.10
2017-09-15T17:02:07.790Z,15.10
2017-09-15T17:04:33.982Z,15.20
2017-09-15T17:07:00.164Z,15.00
2017-09-15T17:09:26.354Z,14.90
2017-09-15T17:11:53.232Z,14.80
2017-09-15T17:14:19.410Z,14.80
2017-09-15T17:16:46.363Z,14.70
2017-09-15T17:19:12.543Z,14.60
2017-09-15T17:21:39.479Z,14.40
2017-09-15T17:24:05.610Z,14.40
2017-09-15T17:26:32.753Z,14.20
2017-09-15T17:28:58.917Z,14.20
2017-09-15T17:31:25.817Z,14.20
2017-09-15T17:33:52.100Z,14.20
2017-09-15T17:36:19.185Z,14.10
2017-09-15T17:38:45.320Z,14.10
2017-09-15T17:41:11.493Z,14.30
2017-09-15T17:43:43.791Z,14.20
2017-09-15T17:46:09.958Z,13.90
2017-09-15T17:48:36.939Z,13.80
2017-09-15T17:51:03.300Z,13.80
2017-09-15T17:53:30.273Z,13.70
2017-09-15T17:55:57.137Z,13.80
2017-09-15T17:58:23.276Z,13.90
2017-09-15T18:00:52.742Z,13.60
2017-09-15T18:03:19.143Z,13.40
2017-09-15T18:05:45.333Z,13.30
2017-09-15T18:08:11.509Z,13.30
2017-09-15T18:10:38.434Z,13.20
2017-09-15T18:13:05.466Z,13.10
2017-09-15T18:15:32.413Z,13.10
2017-09-15T18:17:59.277Z,13.00
2017-09-15T18:20:25.397Z,13.00
2017-09-15T18:22:51.654Z,13.20
2017-09-15T18:25:17.943Z,12.90
2017-09-15T18:27:44.247Z,12.90
2017-09-15T18:30:10.587Z,12.90
2017-09-15T18:32:36.743Z,12.70
2017-09-15T18:35:02.956Z,12.70
2017-09-15T18:37:29.132Z,12.70
2017-09-15T18:39:56.227Z,12.60
2017-09-15T18:42:22.417Z,12.60
2017-09-15T18:44:48.571Z,12.50
2017-09-15T18:47:14.745Z,12.70
2017-09-15T18:49:41.029Z,12.40
2017-09-15T18:52:07.996Z,12.30
2017-09-15T18:54:34.858Z,12.30
2017-09-15T18:57:00.989Z,12.40
2017-09-15T18:59:27.874Z,12.40
2017-09-15T19:01:54.080Z,12.80
2017-09-15T19:04:20.286Z,12.70
2017-09-15T19:06:46.456Z,12.40
2017-09-15T19:09:12.615Z,12.50
2017-09-15T19:11:38.765Z,12.50
2017-09-15T19:14:05.013Z,12.50
2017-09-15T19:16:31.914Z,12.40
2017-09-15T19:18:58.810Z,12.60
2017-09-15T19:21:25.142Z,12.60
2017-09-15T19:23:51.501Z,12.60
2017-09-15T19:26:18.610Z,12.60
2017-09-15T19:28:45.026Z,12.60
2017-09-15T19:31:11.429Z,12.50
2017-09-15T19:33:37.752Z,12.50
2017-09-15T19:36:04.097Z,12.50
2017-09-15T19:38:30.545Z,12.80
2017-09-15T19:40:56.895Z,12.10
2017-09-15T19:43:23.630Z,12.40
2017-09-15T19:45:49.997Z,12.30
2017-09-15T19:48:16.418Z,12.10
2017-09-15T19:50:42.917Z,12.20
2017-09-15T19:53:10.277Z,12.30
2017-09-15T19:55:36.758Z,12.30
2017-09-15T19:58:03.294Z,12.30
2017-09-15T20:00:30.496Z,12.30
2017-09-15T20:02:56.867Z,12.20
2017-09-15T20:05:23.396Z,11.90
2017-09-15T20:07:50.536Z,12.20
2017-09-15T20:10:18.654Z,12.20
2017-09-15T20:12:45.113Z,12.10
2017-09-15T20:15:13.496Z,12.30
2017-09-15T20:17:39.911Z,12.10
2017-09-15T20:20:06.305Z,12.10
2017-09-15T20:22:32.684Z,12.00
2017-09-15T20:24:59.874Z,12.00
2017-09-15T20:27:26.317Z,12.00
2017-09-15T20:29:52.725Z,11.90
2017-09-15T20:32:19.302Z,11.90
2017-09-15T20:34:45.700Z,12.00
2017-09-15T20:37:12.807Z,11.90
2017-09-15T20:39:39.266Z,11.90
2017-09-15T20:42:05.662Z,12.00
2017-09-15T20:44:32.013Z,11.90
2017-09-15T20:46:58.207Z,11.90
2017-09-15T20:49:25.103Z,11.90
2017-09-15T20:51:52.050Z,11.90
2017-09-15T20:54:18.213Z,11.80
2017-09-15T20:56:44.382Z,11.90
2017-09-15T20:59:10.608Z,11.80
2017-09-15T21:01:36.782Z,11.80
2017-09-15T21:04:03.778Z,11.80
2017-09-15T21:06:29.959Z,11.70
2017-09-15T21:08:56.135Z,11.80
2017-09-15T21:11:23.073Z,11.70
2017-09-15T21:13:49.307Z,11.70
2017-09-15T21:16:15.536Z,11.70
2017-09-15T21:18:41.852Z,11.80
2017-09-15T21:21:08.021Z,11.70
2017-09-15T21:23:34.932Z,11.70
2017-09-15T21:26:04.585Z,11.60
2017-09-15T21:28:30.902Z,11.70
2017-09-15T21:30:57.268Z,11.70
2017-09-15T21:33:23.619Z,11.60
2017-09-15T21:35:50.015Z,11.70
2017-09-15T21:38:16.842Z,11.60
2017-09-15T21:40:43.367Z,11.60
2017-09-15T21:43:09.910Z,11.50
2017-09-15T21:45:36.406Z,11.50
2017-09-15T21:48:02.845Z,11.50
2017-09-15T21:50:29.245Z,11.10
2017-09-15T21:52:56.447Z,11.30
2017-09-15T21:55:24.995Z,11.30
2017-09-15T21:57:51.766Z,11.40
2017-09-15T22:00:18.858Z,11.40
2017-09-15T22:02:45.293Z,11.50
2017-09-15T22:05:11.707Z,11.40
2017-09-15T22:07:38.083Z,11.60
2017-09-15T22:10:04.424Z,11.50
2017-09-15T22:12:30.956Z,11.60
2017-09-15T22:14:57.310Z,11.60
2017-09-15T22:17:23.694Z,11.60
2017-09-15T22:19:50.095Z,11.60
2017-09-15T22:22:16.694Z,11.90
2017-09-15T22:24:43.885Z,11.60
2017-09-15T22:27:10.971Z,11.40
2017-09-15T22:29:41.247Z,11.50
2017-09-15T22:32:07.647Z,11.50
2017-09-15T22:34:34.126Z,11.50
2017-09-15T22:37:01.200Z,11.30
2017-09-15T22:39:27.572Z,11.30
2017-09-15T22:41:53.929Z,11.30
2017-09-15T22:44:23.087Z,11.30
2017-09-15T22:46:49.453Z,11.30
2017-09-15T22:49:15.930Z,11.20
2017-09-15T22:51:43.113Z,11.30
2017-09-15T22:54:09.509Z,11.20
2017-09-15T22:56:35.887Z,11.30
2017-09-15T22:59:02.448Z,11.40
2017-09-15T23:01:28.799Z,11.30
2017-09-15T23:03:55.167Z,11.20
2017-09-15T23:06:21.315Z,10.90
2017-09-15T23:08:47.517Z,11.20
2017-09-15T23:11:13.684Z,11.50
2017-09-15T23:13:40.583Z,11.10
2017-09-15T23:16:06.745Z,11.10
2017-09-15T23:18:32.943Z,11.10
2017-09-15T23:20:59.087Z,11.50
2017-09-15T23:23:25.277Z,11.20
2017-09-15T23:25:51.534Z,11.20
2017-09-15T23:28:17.682Z,11.10
2017-09-15T23:30:44.550Z,11.10
2017-09-15T23:33:10.751Z,11.10
2017-09-15T23:35:36.927Z,11.10
2017-09-15T23:38:03.071Z,11.20
2017-09-15T23:40:29.228Z,11.10
2017-09-15T23:42:55.413Z,11.10
2017-09-15T23:45:21.694Z,11.30
2017-09-15T23:47:47.871Z,11.00
2017-09-15T23:50:14.378Z,11.20
2017-09-15T23:52:40.560Z,11.00
2017-09-15T23:55:07.112Z,10.90
2017-09-15T23:57:34.331Z,10.80
